Station: Truscott  

  Atmospheric Gas Attenuation - ITU Rec 676-11   ----------------- dB/100km -----------------
Date Time Temp RH % AH g/m3 Dew Point Wind Direction Speed kph Gust kph Barometer mB Rainfall Since 9am 24GHz 47GHz 76GHz 122GHz 134GHz 241GHz
08/05 11:00 26.5 38 9.51 11 24 39 1013.7 0 20.9 23.8 37.2 97.6 94.2 325.2
08/05 10:50 26.4 39 9.71 11.3 19 26 1013.8 0 21.3 24.1 37.9 99.6 96.6 333.7
08/05 10:40 26.3 38 9.41 10.9 24 37 1013.9 0 20.7 23.7 36.9 96.9 93.3 322.0
08/05 10:30 26.1 39 9.55 11.1 22 37 1013.9 0 21.0 24.0 37.5 98.5 95.1 328.5
08/05 10:20 25.8 38 9.15 10.4 20 33 1013.9 0 20.2 23.5 36.2 95.1 90.9 313.5
08/05 10:10 25.5 39 9.23 10.5 17 30 1014.1 0 20.4 23.7 36.7 96.2 92.1 318.0
08/05 10:00 25.5 39 9.23 10.5 19 33 1014 0 20.4 23.7 36.7 96.2 92.1 317.9
08/05 09:50 25 39 8.98 10.1 22 30 1014.1 0 19.9 23.5 36.0 94.5 89.8 309.8
08/05 09:40 24.8 39 8.88 9.9 20 32 1014 0 19.7 23.4 35.7 93.7 88.9 306.5
08/05 09:30 24.5 40 8.95 10 20 35 1013.9 0 19.8 23.5 36.1 94.7 90.0 310.4
08/05 09:20 24.1 40 8.75 9.7 24 35 1013.9 0 19.4 23.3 35.6 93.3 88.1 303.8
08/05 09:10 23.8 41 8.82 9.8 24 32 1013.8 0 19.6 23.5 36.0 94.3 89.3 307.8
08/05 09:00 23.6 42 8.93 9.9 20 33 1013.8 0 19.8 23.7 36.4 95.6 90.8 313.0
08/05 08:50 23.4 41 8.62 9.4 26 33 1013.8 0 19.2 23.3 35.4 92.9 87.4 301.1
08/05 08:40 23.1 42 8.68 9.5 19 26 1013.7 0 19.3 23.5 35.8 93.8 88.4 304.7
08/05 08:30 22.8 43 8.74 9.6 20 37 1013.7 0 19.5 23.7 36.1 94.7 89.5 308.3
08/05 08:20 22.6 43 8.64 9.4 19 30 1013.6 0 19.3 23.6 35.8 94.0 88.5 304.9
08/05 08:10 22.3 44 8.69 9.5 17 22 1013.5 0 19.4 23.7 36.1 94.8 89.4 308.1
08/05 08:00 22.1 44 8.59 9.3 17 28 1013.4 0 19.2 23.6 35.9 94.1 88.4 304.7
08/05 07:50 21.9 44 8.49 9.1 15 19 1013.4 0 19.0 23.5 35.6 93.3 87.5 301.3
08/05 07:40 21.7 45 8.58 9.3 17 24 1013.4 0 19.2 23.7 36.0 94.4 88.8 305.8
08/05 07:30 21.4 46 8.62 9.3 17 28 1013.2 0 19.3 23.8 36.3 95.2 89.6 308.5
08/05 07:20 21.3 46 8.57 9.2 17 22 1013.1 0 19.2 23.8 36.1 94.8 89.1 306.8
08/05 07:10 21.2 47 8.71 9.4 13 20 1013 0 19.5 24.0 36.7 96.2 90.9 313.0
08/05 07:00 21.1 47 8.66 9.4 13 22 1012.9 0 19.4 24.0 36.5 95.9 90.4 311.3
08/05 06:50 21.4 46 8.62 9.3 11 15 1012.8 0 19.3 23.8 36.3 95.1 89.5 308.4
08/05 06:40 21.5 46 8.67 9.4 13 15 1012.8 0 19.4 23.9 36.4 95.5 90.0 310.1
08/05 06:30 21.6 46 8.72 9.5 13 24 1012.8 0 19.5 23.9 36.5 95.8 90.5 311.8
08/05 06:20 21.7 46 8.77 9.6 13 17 1012.7 0 19.6 24.0 36.7 96.2 91.0 313.5
08/05 06:10 21.8 45 8.63 9.3 13 19 1012.6 0 19.3 23.7 36.1 94.7 89.2 307.3
08/05 06:00 21.9 45 8.68 9.4 13 19 1012.6 0 19.4 23.8 36.2 95.1 89.7 308.9
08/05 05:50 22 44 8.54 9.2 13 15 1012.5 0 19.1 23.5 35.7 93.6 87.9 302.7
08/05 05:40 22.1 43 8.39 8.9 11 15 1012.5 0 18.8 23.3 35.1 92.1 86.0 296.2
08/05 05:30 22.4 42 8.34 8.9 15 20 1012.5 0 18.6 23.1 34.8 91.3 85.1 293.1
08/05 05:20 22.5 42 8.39 9 15 19 1012.4 0 18.7 23.2 34.9 91.6 85.6 294.7
08/05 05:10 22.5 42 8.39 9 17 20 1012.4 0 18.7 23.2 34.9 91.6 85.6 294.7
08/05 05:00 22.7 41 8.28 8.8 15 28 1012.3 0 18.5 23.0 34.5 90.3 84.1 289.5
08/05 04:50 22.7 41 8.28 8.8 15 17 1012.2 0 18.5 23.0 34.5 90.3 84.1 289.5
08/05 04:40 22.8 41 8.33 8.9 19 24 1012.1 0 18.6 23.0 34.6 90.7 84.6 291.1
08/05 04:30 22.7 41 8.28 8.8 13 20 1012.2 0 18.5 23.0 34.5 90.3 84.1 289.5
08/05 04:20 22.9 40 8.17 8.6 11 15 1012.2 0 18.3 22.8 34.0 89.1 82.6 284.3
08/05 04:10 23.1 40 8.27 8.8 13 17 1012.3 0 18.5 22.9 34.3 89.8 83.6 287.7
08/05 04:00 23.1 40 8.27 8.8 15 20 1012.3 0 18.5 22.9 34.3 89.8 83.6 287.7
08/05 03:50 23.2 40 8.32 8.9 13 17 1012.4 0 18.6 22.9 34.4 90.2 84.0 289.4
08/05 03:40 23.3 39 8.15 8.6 15 17 1012.5 0 18.2 22.7 33.8 88.5 82.0 282.2
08/05 03:30 23.1 40 8.27 8.8 13 22 1012.5 0 18.5 22.9 34.3 89.8 83.6 287.7
08/05 03:20 23.2 40 8.32 8.9 17 20 1012.5 0 18.6 22.9 34.4 90.2 84.1 289.4
08/05 03:10 23.2 41 8.52 9.2 13 17 1012.7 0 19.0 23.2 35.1 92.1 86.4 297.5
08/05 03:00 23 41 8.43 9 13 19 1012.8 0 18.8 23.1 34.9 91.5 85.6 294.6
08/05 01:20 22.8 42 8.53 9.2 13 17 1012.8 0 19.0 23.3 35.3 92.6 86.9 299.4
08/05 02:50 22.8 42 8.53 9.2 13 17 1012.8 0 19.0 23.3 35.3 92.6 86.9 299.4
08/05 02:40 22.8 43 8.74 9.6 11 15 1012.9 0 19.5 23.6 36.1 94.6 89.4 308.1
08/05 02:30 22.9 42 8.58 9.3 11 17 1013 0 19.1 23.4 35.5 93.0 87.4 301.2
08/05 02:20 22.9 42 8.58 9.3 11 17 1013 0 19.1 23.4 35.5 93.0 87.4 301.2
08/05 02:10 23.1 42 8.68 9.5 11 17 1013.1 0 19.3 23.5 35.7 93.7 88.4 304.5
08/05 02:00 23.1 42 8.68 9.5 11 19 1013.2 0 19.3 23.5 35.7 93.7 88.4 304.6
08/05 01:50 23.1 43 8.89 9.8 11 15 1013.2 0 19.8 23.8 36.5 95.7 90.8 313.2
08/05 01:40 23.4 41 8.62 9.4 15 19 1013.3 0 19.2 23.3 35.4 92.8 87.4 301.0
08/05 01:30 23.1 42 8.68 9.5 11 15 1013.2 0 19.3 23.5 35.7 93.7 88.4 304.6
08/05 01:19 23.3 41 8.57 9.3 11 15 1013.3 0 19.1 23.3 35.3 92.5 86.9 299.3
07/05 23:49 23.3 41 8.57 9.3 11 15 1013.3 0 19.1 23.3 35.3 92.5 86.9 299.3
08/05 01:10 23.4 41 8.62 9.4 13 15 1013.4 0 19.2 23.3 35.4 92.9 87.4 301.0
08/05 01:00 23.5 41 8.67 9.5 9 15 1013.5 0 19.3 23.4 35.5 93.2 87.8 302.7
08/05 00:50 23.6 42 8.93 9.9 11 13 1013.6 0 19.8 23.7 36.4 95.6 90.8 313.0
08/05 00:40 23.6 42 8.93 9.9 9 13 1013.7 0 19.8 23.7 36.4 95.6 90.8 313.0
08/05 00:30 23.5 42 8.88 9.9 11 17 1013.7 0 19.7 23.7 36.3 95.2 90.3 311.4
08/05 00:20 23.7 42 8.98 10 11 11 1013.8 0 19.9 23.8 36.6 95.9 91.3 314.7
08/05 00:10 24 41 8.92 9.9 9 11 1013.8 0 19.8 23.6 36.2 95.0 90.2 311.1
08/05 00:00 24 41 8.92 9.9 11 19 1013.8 0 19.8 23.6 36.2 95.0 90.2 311.1
07/05 23:50 23.9 41 8.87 9.9 11 13 1013.8 0 19.7 23.6 36.1 94.7 89.8 309.4
07/05 23:40 24 41 8.92 9.9 9 13 1013.9 0 19.8 23.6 36.2 95.0 90.2 311.1
07/05 23:30 23.9 42 9.09 10.2 9 17 1013.9 0 20.1 23.9 36.9 96.8 92.3 318.5
07/05 23:20 23.8 43 9.25 10.5 9 13 1014 0 20.5 24.1 37.5 98.4 94.3 325.5
07/05 23:10 23.6 44 9.36 10.6 9 13 1014 0 20.7 24.4 38.0 99.7 95.9 330.9
07/05 23:00 23.4 45 9.46 10.8 9 13 1014 0 20.9 24.6 38.4 100.9 97.3 335.9
07/05 22:50 23.5 46 9.73 11.2 9 11 1014.1 0 21.5 24.9 39.4 103.5 100.4 346.8
07/05 22:40 23.3 47 9.83 11.4 9 11 1014.1 0 21.7 25.1 39.8 104.7 101.9 351.9
07/05 22:30 23.3 48 10.04 11.7 9 13 1014.1 0 22.2 25.5 40.6 106.8 104.4 360.8
07/05 22:20 23.4 48 10.09 11.8 11 13 1014 0 22.3 25.5 40.8 107.1 104.9 362.5
07/05 22:10 23.5 48 10.15 11.9 9 11 1014 0 22.4 25.6 40.9 107.6 105.5 364.6
07/05 22:00 24 46 10.01 11.7 7 9 1014 0 22.1 25.2 40.2 105.5 103.2 356.4
07/05 21:50 24.5 43 9.62 11.1 9 11 1014 0 21.2 24.5 38.5 101.1 97.9 337.9
07/05 21:40 24.6 43 9.68 11.2 9 11 1013.9 0 21.3 24.6 38.7 101.6 98.4 340.0
07/05 21:30 24.4 44 9.79 11.4 7 11 1013.8 0 21.6 24.8 39.1 102.9 100.0 345.4
07/05 21:20 24.5 44 9.85 11.5 9 11 1013.8 0 21.7 24.8 39.3 103.3 100.6 347.5
07/05 21:10 24.7 43 9.73 11.3 7 9 1013.7 0 21.4 24.6 38.8 101.9 98.9 341.6
07/05 21:00 24.8 43 9.79 11.4 9 11 1013.6 0 21.6 24.7 38.9 102.3 99.5 343.6
07/05 20:50 24.7 45 10.19 12 9 11 1013.5 0 22.4 25.3 40.4 106.3 104.4 360.7
07/05 20:40 24.8 45 10.24 12.1 9 11 1013.3 0 22.5 25.3 40.6 106.7 104.8 362.3
07/05 20:30 25.2 42 9.78 11.4 9 11 1013.2 0 21.5 24.5 38.7 101.7 98.8 341.4
07/05 20:20 25.1 42 9.72 11.6 7 9 1013 0 21.4 24.4 38.5 101.2 98.2 339.3
07/05 20:10 25.1 45 10.42 12.3 7 9 1012.8 0 22.9 25.5 41.1 108.0 106.5 368.4
07/05 20:00 25.3 43 10.07 11.8 9 11 1012.8 0 22.1 24.9 39.7 104.3 102.1 352.9
07/05 19:50 25.2 47 10.94 13.1 7 9 1012.7 0 23.9 26.2 42.9 113.0 112.7 390.0
07/05 19:40 25.2 47 10.94 13.1 7 9 1012.5 0 23.9 26.2 42.9 112.9 112.7 390.0
07/05 19:30 25.5 47 11.13 13.4 7 11 1012.5 0 24.3 26.4 43.5 114.4 114.6 396.6
07/05 19:20 25.1 52 12.04 14.6 7 9 1012.4 0 26.3 27.9 47.1 124.2 126.5 438.4
07/05 19:10 25.9 47 11.38 13.7 7 9 1012.3 0 24.8 26.7 44.2 116.3 117.1 405.3
07/05 19:00 26.4 44 10.95 13.2 7 9 1012.2 0 23.9 25.9 42.3 111.3 111.1 384.5
07/05 18:50 27.3 37 9.68 11.7 7 9 1012.1 0 21.2 23.8 37.3 98.1 95.0 328.4

Last Refresh: 08-May-2026 11:03:00

Bureau of Meteorology